Terminal Aerodrome Forecast
Issued by NWS Jacksonville, FL

Home | Current Version | Previous Version | Text Only | Print | Product List | Glossary On
Versions: 1 2 3 4 5 6 7 8 9 10 11 12 13 14 15 16 17 18 19 20 21 22
904
FTUS42 KJAX 161120
TAFJAX
TAF
KJAX 161120Z 1612/1712 VRB03KT P6SM SCT070 BKN250
     FM161500 14006KT P6SM SCT050 SCT250
     FM162200 10005KT P6SM SCT050 SCT250
     FM170700 VRB02KT 3SM BR SCT010 BKN250=

USA.gov is the U.S. government's official web portal to all federal, state and local government web resources and services.